createdAt,value
2022-10-17T00:00:16.401Z,27.85
2022-10-17T00:02:42.772Z,26.80
2022-10-17T00:05:09.299Z,25.33
2022-10-17T00:07:35.655Z,25.85
2022-10-17T00:10:02.051Z,28.63
2022-10-17T00:12:28.521Z,24.73
2022-10-17T00:14:54.911Z,27.33
2022-10-17T00:17:21.402Z,23.85
2022-10-17T00:19:47.782Z,27.60
2022-10-17T00:22:14.326Z,25.67
2022-10-17T00:24:40.761Z,22.73
2022-10-17T00:27:07.155Z,28.58
2022-10-17T00:29:33.633Z,23.83
2022-10-17T00:31:59.994Z,25.38
2022-10-17T00:34:29.678Z,23.90
2022-10-17T00:36:56.047Z,23.05
2022-10-17T00:39:22.502Z,23.40
2022-10-17T00:41:48.861Z,23.23
2022-10-17T00:44:30.402Z,22.92
2022-10-17T00:47:00.124Z,24.55
2022-10-17T00:49:28.754Z,22.98
2022-10-17T00:52:01.946Z,26.63
2022-10-17T00:54:33.434Z,23.98
2022-10-17T00:57:01.176Z,22.67
2022-10-17T00:59:28.375Z,26.88
2022-10-17T01:02:05.787Z,22.90
2022-10-17T01:04:32.475Z,24.05
2022-10-17T01:06:59.007Z,21.63
2022-10-17T01:09:26.394Z,22.95
2022-10-17T01:12:33.867Z,25.02
2022-10-17T01:15:06.614Z,22.42
2022-10-17T01:17:44.159Z,27.50
2022-10-17T01:20:49.148Z,25.92
2022-10-17T01:23:27.090Z,22.77
2022-10-17T01:26:21.241Z,24.38
2022-10-17T01:29:05.965Z,22.15
2022-10-17T01:31:39.993Z,21.92
2022-10-17T01:34:44.213Z,23.23
2022-10-17T01:37:34.011Z,22.60
2022-10-17T01:40:10.504Z,26.08
2022-10-17T01:42:48.996Z,21.48
2022-10-17T01:45:23.755Z,21.85
2022-10-17T01:47:52.690Z,22.25
2022-10-17T01:50:28.434Z,21.33
2022-10-17T01:53:33.688Z,22.02
2022-10-17T01:56:03.735Z,19.95
2022-10-17T01:58:50.078Z,19.52
2022-10-17T02:01:18.485Z,22.27
2022-10-17T02:03:46.378Z,19.67
2022-10-17T02:06:12.764Z,23.42
2022-10-17T02:08:45.060Z,22.55
2022-10-17T02:11:16.512Z,23.10
2022-10-17T02:13:49.017Z,19.27
2022-10-17T02:16:42.549Z,20.88
2022-10-17T02:19:39.203Z,18.90
2022-10-17T02:22:05.544Z,17.88
2022-10-17T02:24:45.593Z,22.98
2022-10-17T02:27:23.680Z,17.40
2022-10-17T02:29:57.605Z,19.23
2022-10-17T02:32:30.960Z,18.73
2022-10-17T02:35:00.637Z,20.52
2022-10-17T02:37:30.204Z,17.52
2022-10-17T02:39:59.507Z,23.92
2022-10-17T02:42:27.565Z,17.35
2022-10-17T02:44:58.211Z,18.23
2022-10-17T02:47:34.883Z,16.45
2022-10-17T02:50:01.248Z,19.05
2022-10-17T02:52:45.388Z,18.42
2022-10-17T02:55:32.701Z,16.48
2022-10-17T02:58:03.847Z,17.55
2022-10-17T03:00:31.798Z,17.60
2022-10-17T03:02:58.300Z,15.85
2022-10-17T03:05:29.617Z,16.25
2022-10-17T03:07:56.955Z,16.00
2022-10-17T03:10:23.356Z,16.17
2022-10-17T03:12:49.711Z,16.25
2022-10-17T03:15:16.117Z,15.82
2022-10-17T03:17:42.721Z,16.50
2022-10-17T03:20:09.684Z,16.15
2022-10-17T03:22:36.066Z,16.75
2022-10-17T03:25:02.507Z,16.02
2022-10-17T03:27:32.188Z,30.08
2022-10-17T03:29:58.836Z,18.50
2022-10-17T03:32:25.319Z,15.90
2022-10-17T03:34:51.779Z,21.00
2022-10-17T03:37:18.209Z,15.15
2022-10-17T03:39:44.590Z,16.05
2022-10-17T03:42:10.959Z,16.23
2022-10-17T03:44:37.361Z,16.13
2022-10-17T03:47:03.788Z,15.45
2022-10-17T03:49:30.191Z,14.98
2022-10-17T03:51:56.598Z,16.15
2022-10-17T03:54:22.962Z,15.52
2022-10-17T03:56:49.437Z,16.33
2022-10-17T03:59:16.457Z,16.55
2022-10-17T04:01:43.323Z,16.92
2022-10-17T04:04:10.162Z,16.13
2022-10-17T04:06:37.777Z,16.90
2022-10-17T04:09:05.264Z,17.73
2022-10-17T04:11:31.824Z,16.27
2022-10-17T04:13:59.622Z,18.45
2022-10-17T04:16:26.713Z,16.73
2022-10-17T04:18:58.875Z,16.98
2022-10-17T04:21:27.383Z,17.38
2022-10-17T04:23:59.227Z,17.23
2022-10-17T04:26:25.736Z,16.45
2022-10-17T04:28:52.481Z,16.77
2022-10-17T04:31:19.004Z,21.10
2022-10-17T04:33:50.013Z,18.75
2022-10-17T04:36:18.774Z,17.20
2022-10-17T04:38:45.417Z,16.67
2022-10-17T04:41:14.397Z,16.35
2022-10-17T04:43:42.726Z,16.83
2022-10-17T04:46:14.388Z,16.50
2022-10-17T04:48:40.953Z,17.65
2022-10-17T04:51:20.624Z,16.23
2022-10-17T04:53:49.799Z,16.85
2022-10-17T04:56:18.932Z,16.77
2022-10-17T04:58:46.366Z,17.88
2022-10-17T05:01:15.130Z,16.52
2022-10-17T05:03:41.975Z,22.35
2022-10-17T05:06:11.333Z,16.67
2022-10-17T05:08:38.180Z,17.00
2022-10-17T05:11:05.870Z,16.60
2022-10-17T05:13:33.188Z,16.83
2022-10-17T05:16:00.884Z,17.25
2022-10-17T05:18:28.722Z,16.45
2022-10-17T05:20:55.450Z,17.13
2022-10-17T05:23:21.893Z,16.80
2022-10-17T05:25:48.344Z,16.48
2022-10-17T05:28:14.682Z,16.45
2022-10-17T05:30:41.046Z,17.17
2022-10-17T05:33:07.436Z,16.30
2022-10-17T05:35:33.802Z,16.60
2022-10-17T05:38:00.581Z,16.58
2022-10-17T05:40:27.022Z,16.20
2022-10-17T05:42:53.472Z,17.48
2022-10-17T05:45:19.858Z,16.17
2022-10-17T05:47:46.305Z,16.88
2022-10-17T05:50:13.153Z,17.02
2022-10-17T05:52:40.559Z,16.92
2022-10-17T05:55:08.973Z,17.67
2022-10-17T05:57:35.541Z,17.75
2022-10-17T06:00:02.168Z,17.90
2022-10-17T06:02:28.956Z,17.70
2022-10-17T06:04:55.669Z,18.13
2022-10-17T06:07:22.050Z,17.90
2022-10-17T06:09:48.434Z,17.90
2022-10-17T06:12:14.861Z,18.48
2022-10-17T06:14:41.245Z,18.48
2022-10-17T06:17:09.998Z,17.45
2022-10-17T06:19:41.377Z,19.05
2022-10-17T06:22:08.132Z,22.35
2022-10-17T06:24:34.513Z,18.95
2022-10-17T06:27:00.862Z,20.40
2022-10-17T06:29:27.216Z,27.00
2022-10-17T06:31:54.339Z,19.77
2022-10-17T06:34:21.114Z,20.65
2022-10-17T06:36:47.683Z,20.02
2022-10-17T06:39:14.313Z,20.10
2022-10-17T06:41:44.559Z,20.05
2022-10-17T06:46:40.588Z,19.52
2022-10-17T06:49:07.616Z,22.75
2022-10-17T06:51:37.879Z,22.77
2022-10-17T06:56:30.847Z,18.92
2022-10-17T06:58:57.262Z,19.08
2022-10-17T07:01:23.647Z,22.58
2022-10-17T07:03:50.132Z,19.58
2022-10-17T07:06:17.945Z,18.10
2022-10-17T07:08:45.619Z,17.90
2022-10-17T07:11:14.257Z,18.25
2022-10-17T07:13:41.029Z,19.20
2022-10-17T07:16:08.305Z,18.00
2022-10-17T07:18:34.936Z,17.52
2022-10-17T07:21:01.458Z,18.98
2022-10-17T07:23:28.236Z,16.92
2022-10-17T07:26:03.400Z,16.90
2022-10-17T07:28:29.940Z,16.48
2022-10-17T07:30:56.346Z,20.85
2022-10-17T07:33:22.854Z,17.08
2022-10-17T07:35:49.522Z,17.05
2022-10-17T07:38:15.896Z,16.45
2022-10-17T07:40:42.485Z,16.20
2022-10-17T07:43:08.869Z,16.52
2022-10-17T07:45:35.207Z,18.00
2022-10-17T07:48:01.585Z,16.58
2022-10-17T07:50:29.130Z,15.82
2022-10-17T07:52:55.487Z,17.13
2022-10-17T07:55:21.927Z,14.45
2022-10-17T07:57:48.254Z,15.27
2022-10-17T08:00:14.826Z,15.77
2022-10-17T08:02:41.268Z,14.63
2022-10-17T08:05:08.060Z,15.10
2022-10-17T08:07:34.440Z,15.23
2022-10-17T08:10:00.933Z,14.93
2022-10-17T08:12:27.748Z,14.85
2022-10-17T08:14:54.552Z,15.13
2022-10-17T08:17:21.591Z,14.98
2022-10-17T08:19:48.025Z,17.67
2022-10-17T08:22:14.413Z,17.35
2022-10-17T08:24:42.711Z,17.70
2022-10-17T08:27:11.498Z,15.80
2022-10-17T08:29:39.151Z,14.45
2022-10-17T08:32:08.984Z,16.20
2022-10-17T08:34:36.443Z,16.00
2022-10-17T08:37:02.898Z,17.77
2022-10-17T08:39:29.456Z,14.18
2022-10-17T08:42:03.334Z,13.98
2022-10-17T08:44:35.786Z,18.10
2022-10-17T08:47:06.520Z,13.32
2022-10-17T08:49:52.231Z,14.07
2022-10-17T08:52:43.618Z,14.57
2022-10-17T08:55:21.090Z,14.05
2022-10-17T08:57:48.473Z,14.75
2022-10-17T09:00:19.491Z,14.52
2022-10-17T09:02:48.817Z,17.10
2022-10-17T09:05:28.339Z,13.10
2022-10-17T09:08:28.808Z,12.77
2022-10-17T09:11:09.859Z,13.65
2022-10-17T09:14:06.208Z,15.40
2022-10-17T09:16:48.970Z,14.48
2022-10-17T09:19:26.852Z,12.48
2022-10-17T09:22:04.319Z,13.18
2022-10-17T09:24:41.667Z,14.02
2022-10-17T09:27:26.069Z,13.57
2022-10-17T09:30:17.168Z,11.80
2022-10-17T09:32:57.879Z,12.68
2022-10-17T09:35:26.698Z,12.13
2022-10-17T09:37:54.135Z,12.27
2022-10-17T09:40:32.292Z,14.43
2022-10-17T09:43:01.376Z,16.77
2022-10-17T09:45:33.589Z,12.83
2022-10-17T09:48:05.973Z,13.07
2022-10-17T09:50:34.012Z,12.65
2022-10-17T09:53:08.520Z,14.63
2022-10-17T09:55:42.513Z,20.88
2022-10-17T09:58:10.780Z,15.82
2022-10-17T10:00:40.236Z,13.07
2022-10-17T10:03:12.921Z,14.88
2022-10-17T10:05:40.526Z,13.18
2022-10-17T10:08:17.815Z,15.15
2022-10-17T10:10:45.183Z,13.10
2022-10-17T10:13:14.442Z,14.52
2022-10-17T10:15:43.547Z,14.10
2022-10-17T10:18:25.053Z,13.88
2022-10-17T10:21:21.390Z,13.13
2022-10-17T10:24:13.192Z,14.68
2022-10-17T10:26:45.922Z,12.27
2022-10-17T10:29:35.769Z,13.00
2022-10-17T10:32:26.197Z,15.73
2022-10-17T10:34:57.494Z,11.77
2022-10-17T10:37:41.793Z,17.75
2022-10-17T10:40:18.516Z,12.32
2022-10-17T10:42:48.912Z,14.13
2022-10-17T10:45:49.368Z,11.55
2022-10-17T10:48:20.583Z,12.43
2022-10-17T10:50:49.461Z,12.30
2022-10-17T10:53:56.898Z,14.90
2022-10-17T10:56:34.115Z,11.50
2022-10-17T10:59:10.059Z,11.55
2022-10-17T11:02:20.975Z,15.45
2022-10-17T11:04:54.883Z,11.88
2022-10-17T11:07:33.645Z,11.77
2022-10-17T11:10:09.220Z,14.63
2022-10-17T11:12:41.638Z,13.23
2022-10-17T11:15:49.578Z,15.45
2022-10-17T11:18:33.239Z,13.18
2022-10-17T11:21:13.398Z,13.40
2022-10-17T11:23:53.175Z,13.73
2022-10-17T11:26:26.720Z,12.30
2022-10-17T11:28:54.599Z,15.57
2022-10-17T11:31:23.553Z,14.32
2022-10-17T11:33:57.153Z,12.30
2022-10-17T11:36:30.132Z,11.68
2022-10-17T11:39:08.984Z,11.30
2022-10-17T11:41:42.940Z,11.57
2022-10-17T11:44:27.340Z,12.15
2022-10-17T11:47:35.856Z,12.27
2022-10-17T11:53:13.367Z,13.77
2022-10-17T11:55:41.762Z,13.05
2022-10-17T11:58:23.370Z,12.73
2022-10-17T12:01:05.027Z,13.63
2022-10-17T12:03:41.327Z,11.45
2022-10-17T12:06:29.342Z,12.52
2022-10-17T12:09:27.592Z,13.68
2022-10-17T12:11:59.814Z,17.00
2022-10-17T12:14:47.530Z,29.45
2022-10-17T12:17:38.937Z,30.83
2022-10-17T12:20:21.175Z,31.20
2022-10-17T12:22:49.542Z,32.17
2022-10-17T12:25:32.686Z,34.10
2022-10-17T12:28:30.798Z,34.28
2022-10-17T12:31:05.719Z,34.38
2022-10-17T12:34:00.136Z,33.95
2022-10-17T12:36:26.429Z,34.33
2022-10-17T12:39:01.610Z,34.50
2022-10-17T12:41:40.232Z,34.22
2022-10-17T12:44:15.704Z,34.28
2022-10-17T12:46:51.847Z,34.17
2022-10-17T12:49:39.420Z,33.85
2022-10-17T12:52:17.658Z,33.08
2022-10-17T12:55:00.227Z,34.10
2022-10-17T12:58:00.264Z,34.45
2022-10-17T13:00:37.841Z,33.90
2022-10-17T13:03:18.319Z,32.63
2022-10-17T13:05:57.496Z,32.78
2022-10-17T13:08:38.786Z,32.33
2022-10-17T13:11:06.759Z,31.63
2022-10-17T13:13:42.422Z,32.13
2022-10-17T13:16:09.194Z,39.55
2022-10-17T13:18:35.941Z,40.38
2022-10-17T13:21:14.483Z,41.05
2022-10-17T13:23:41.097Z,41.72
2022-10-17T13:26:10.217Z,48.22
2022-10-17T13:28:39.319Z,42.67
2022-10-17T13:31:06.456Z,43.22
2022-10-17T13:33:39.204Z,45.50
2022-10-17T13:36:15.814Z,45.95
2022-10-17T13:38:43.238Z,43.30
2022-10-17T13:41:34.931Z,47.20
2022-10-17T13:44:07.558Z,43.50
2022-10-17T13:46:38.458Z,42.42
2022-10-17T13:49:30.907Z,44.05
2022-10-17T13:51:58.427Z,49.03
2022-10-17T13:54:42.814Z,42.13
2022-10-17T13:57:23.378Z,45.30
2022-10-17T13:59:54.523Z,46.95
2022-10-17T14:02:31.909Z,45.92
2022-10-17T14:05:17.141Z,42.65
2022-10-17T14:08:11.793Z,42.42
2022-10-17T14:10:45.707Z,48.08
2022-10-17T14:13:51.717Z,48.28
2022-10-17T14:17:00.623Z,43.00
2022-10-17T14:20:16.099Z,44.78
2022-10-17T14:23:04.449Z,42.17
2022-10-17T14:25:53.176Z,43.92
2022-10-17T14:28:28.685Z,44.72
2022-10-17T14:31:36.894Z,43.55
2022-10-17T14:34:05.487Z,41.85
2022-10-17T14:36:42.709Z,43.08
2022-10-17T14:39:29.947Z,41.97
2022-10-17T14:42:04.268Z,42.67
2022-10-17T14:44:50.511Z,46.03
2022-10-17T14:47:50.270Z,44.75
2022-10-17T14:53:26.463Z,43.60
2022-10-17T14:56:05.647Z,43.55
2022-10-17T14:58:35.303Z,46.25
2022-10-17T15:01:28.248Z,45.72
2022-10-17T15:04:02.947Z,44.78
2022-10-17T15:06:47.118Z,46.17
2022-10-17T15:09:20.686Z,48.25
2022-10-17T15:11:48.137Z,44.25
2022-10-17T15:14:28.694Z,46.63
2022-10-17T15:17:08.289Z,47.95
2022-10-17T15:19:35.548Z,45.80
2022-10-17T15:22:07.900Z,48.50
2022-10-17T15:24:56.848Z,47.58
2022-10-17T15:27:29.429Z,47.13
2022-10-17T15:30:04.966Z,47.45
2022-10-17T15:32:38.080Z,49.42
2022-10-17T15:35:14.214Z,47.17
2022-10-17T15:37:44.032Z,48.10
2022-10-17T15:40:25.871Z,47.10
2022-10-17T15:43:00.771Z,47.88
2022-10-17T15:46:02.131Z,48.22
2022-10-17T15:48:32.135Z,48.70
2022-10-17T15:51:02.291Z,49.67
2022-10-17T15:56:06.275Z,50.15
2022-10-17T15:58:40.915Z,51.35
2022-10-17T16:01:07.990Z,53.30
2022-10-17T16:03:47.161Z,53.33
2022-10-17T16:06:32.397Z,54.40
2022-10-17T16:09:05.604Z,50.72
2022-10-17T16:11:40.024Z,50.38
2022-10-17T16:14:15.928Z,48.28
2022-10-17T16:16:43.387Z,49.13
2022-10-17T16:19:14.053Z,48.03
2022-10-17T16:21:47.534Z,46.60
2022-10-17T16:24:27.591Z,47.90
2022-10-17T16:27:06.715Z,46.33
2022-10-17T16:29:39.371Z,47.58
2022-10-17T16:32:19.904Z,47.28
2022-10-17T16:34:50.312Z,48.00
2022-10-17T16:37:23.486Z,49.25
2022-10-17T16:39:52.746Z,47.10
2022-10-17T16:42:38.879Z,46.97
2022-10-17T16:45:08.155Z,47.35
2022-10-17T16:47:38.211Z,48.43
2022-10-17T16:52:45.329Z,48.25
2022-10-17T16:55:19.962Z,49.20
2022-10-17T16:57:50.091Z,47.92
2022-10-17T17:02:47.631Z,48.95
2022-10-17T17:05:18.654Z,48.08
2022-10-17T17:07:50.997Z,48.17
2022-10-17T17:10:20.731Z,48.47
2022-10-17T17:12:48.704Z,49.05
2022-10-17T17:15:18.424Z,47.22
2022-10-17T17:17:55.754Z,48.63
2022-10-17T17:20:22.963Z,48.08
2022-10-17T17:22:53.351Z,48.10
2022-10-17T17:25:25.900Z,47.33
2022-10-17T17:27:52.836Z,45.80
2022-10-17T17:30:22.615Z,47.35
2022-10-17T17:32:49.948Z,47.45
2022-10-17T17:35:19.611Z,47.38
2022-10-17T17:37:52.233Z,46.25
2022-10-17T17:40:21.832Z,47.28
2022-10-17T17:42:52.990Z,47.80
2022-10-17T17:45:25.342Z,46.17
2022-10-17T17:47:55.346Z,48.50
2022-10-17T17:50:38.430Z,48.42
2022-10-17T17:53:05.915Z,46.88
2022-10-17T17:55:33.008Z,48.65
2022-10-17T17:57:59.782Z,50.70
2022-10-17T18:00:26.691Z,49.58
2022-10-17T18:02:53.217Z,48.55
2022-10-17T18:05:19.908Z,51.28
2022-10-17T18:07:46.389Z,50.15
2022-10-17T18:12:42.199Z,55.95
2022-10-17T18:15:08.821Z,55.83
2022-10-17T18:17:35.343Z,55.88
2022-10-17T18:20:02.730Z,55.95
2022-10-17T18:22:32.621Z,57.35
2022-10-17T18:24:59.511Z,59.17
2022-10-17T18:27:25.856Z,58.50
2022-10-17T18:29:52.353Z,61.80
2022-10-17T18:32:18.974Z,60.47
2022-10-17T18:34:45.437Z,57.90
2022-10-17T18:37:11.793Z,60.65
2022-10-17T18:39:38.538Z,59.38
2022-10-17T18:42:04.906Z,61.65
2022-10-17T18:44:31.290Z,59.28
2022-10-17T18:47:03.008Z,61.58
2022-10-17T18:49:30.762Z,59.42
2022-10-17T18:51:57.133Z,55.03
2022-10-17T18:54:24.377Z,46.58
2022-10-17T18:56:52.331Z,39.22
2022-10-17T18:59:19.920Z,37.55
2022-10-17T19:01:47.121Z,36.83
2022-10-17T19:04:14.056Z,36.70
2022-10-17T19:06:41.005Z,35.40
2022-10-17T19:09:08.865Z,34.13
2022-10-17T19:11:36.415Z,33.50
2022-10-17T19:14:07.927Z,34.13
2022-10-17T19:16:35.983Z,33.60
2022-10-17T19:19:14.375Z,34.58
2022-10-17T19:21:40.919Z,34.47
2022-10-17T19:24:11.424Z,34.58
2022-10-17T19:26:39.673Z,34.95
2022-10-17T19:29:06.614Z,35.10
2022-10-17T19:31:34.671Z,35.03
2022-10-17T19:34:01.160Z,35.42
2022-10-17T19:36:33.354Z,35.17
2022-10-17T19:39:02.015Z,35.33
2022-10-17T19:41:28.563Z,36.22
2022-10-17T19:43:55.202Z,35.67
2022-10-17T19:46:24.466Z,35.25
2022-10-17T19:48:51.723Z,35.67
2022-10-17T19:51:20.247Z,36.22
2022-10-17T19:53:47.400Z,37.13
2022-10-17T19:56:13.864Z,37.17
2022-10-17T19:58:46.584Z,37.53
2022-10-17T20:01:16.804Z,38.05
2022-10-17T20:03:43.890Z,38.70
2022-10-17T20:06:10.591Z,39.45
2022-10-17T20:08:38.487Z,38.53
2022-10-17T20:11:11.561Z,38.17
2022-10-17T20:13:38.371Z,37.40
2022-10-17T20:16:06.599Z,38.85
2022-10-17T20:18:33.141Z,37.95
2022-10-17T20:21:05.471Z,37.92
2022-10-17T20:23:32.336Z,37.65
2022-10-17T20:26:13.620Z,37.80
2022-10-17T20:28:49.733Z,38.00
2022-10-17T20:31:16.537Z,38.75
2022-10-17T20:33:42.966Z,39.63
2022-10-17T20:36:11.784Z,39.63
2022-10-17T20:38:38.459Z,39.58
2022-10-17T20:41:09.889Z,38.30
2022-10-17T20:43:37.304Z,38.47
2022-10-17T20:46:21.890Z,38.30
2022-10-17T20:48:54.273Z,38.17
2022-10-17T20:51:21.373Z,37.78
2022-10-17T20:53:48.787Z,37.45
2022-10-17T20:56:27.839Z,39.20
2022-10-17T20:59:03.224Z,38.28
2022-10-17T21:01:31.758Z,38.20
2022-10-17T21:04:06.058Z,37.47
2022-10-17T21:06:42.611Z,37.47
2022-10-17T21:09:09.222Z,37.85
2022-10-17T21:11:35.616Z,38.17
2022-10-17T21:14:04.893Z,38.10
2022-10-17T21:16:34.080Z,38.10
2022-10-17T21:19:00.908Z,37.88
2022-10-17T21:21:30.588Z,39.92
2022-10-17T21:24:01.264Z,36.83
2022-10-17T21:26:30.778Z,36.85
2022-10-17T21:28:57.706Z,38.20
2022-10-17T21:31:26.599Z,36.83
2022-10-17T21:34:00.623Z,38.00
2022-10-17T21:36:28.160Z,37.63
2022-10-17T21:38:56.404Z,37.50
2022-10-17T21:41:25.621Z,37.88
2022-10-17T21:43:55.302Z,37.20
2022-10-17T21:46:22.257Z,37.97
2022-10-17T21:48:50.414Z,38.75
2022-10-17T21:51:18.845Z,38.50
2022-10-17T21:53:46.123Z,41.40
2022-10-17T21:56:15.857Z,38.45
2022-10-17T21:58:42.770Z,40.10
2022-10-17T22:01:18.006Z,40.67
2022-10-17T22:03:47.030Z,40.80
2022-10-17T22:09:23.402Z,42.08
2022-10-17T22:11:53.079Z,45.67
2022-10-17T22:14:21.337Z,42.47
2022-10-17T22:16:48.926Z,42.67
2022-10-17T22:19:18.817Z,44.33
2022-10-17T22:21:45.375Z,43.67
2022-10-17T22:24:14.322Z,48.80
2022-10-17T22:26:41.674Z,44.50
2022-10-17T22:29:08.828Z,44.92
2022-10-17T22:31:36.321Z,44.67
2022-10-17T22:34:05.258Z,44.03
2022-10-17T22:36:32.605Z,46.27
2022-10-17T22:39:02.122Z,45.28
2022-10-17T22:41:28.486Z,44.85
2022-10-17T22:43:54.844Z,47.70
2022-10-17T22:46:21.347Z,49.90
2022-10-17T22:48:47.797Z,45.53
2022-10-17T22:51:14.911Z,46.78
2022-10-17T22:53:41.694Z,46.97
2022-10-17T22:56:18.406Z,53.50
2022-10-17T22:58:45.384Z,47.53
2022-10-17T23:01:18.712Z,47.45
2022-10-17T23:03:45.236Z,48.70
2022-10-17T23:06:12.645Z,48.95
2022-10-17T23:08:39.567Z,49.17
2022-10-17T23:11:06.915Z,53.92
2022-10-17T23:13:33.525Z,51.90
2022-10-17T23:15:59.883Z,49.58
2022-10-17T23:18:27.012Z,51.05
2022-10-17T23:20:53.989Z,50.13
2022-10-17T23:23:21.255Z,51.60
2022-10-17T23:25:48.003Z,53.78
2022-10-17T23:28:14.680Z,52.20
2022-10-17T23:30:41.148Z,60.45
2022-10-17T23:33:09.299Z,52.53
2022-10-17T23:35:36.079Z,53.85
2022-10-17T23:38:02.859Z,49.65
2022-10-17T23:40:29.920Z,55.03
2022-10-17T23:42:56.285Z,54.50
2022-10-17T23:45:22.686Z,51.90
2022-10-17T23:47:49.103Z,56.22
2022-10-17T23:50:16.332Z,54.72
2022-10-17T23:52:42.738Z,53.38
2022-10-17T23:55:09.677Z,59.05
2022-10-17T23:57:36.085Z,55.38
